Heat Index [SAI AWOS/ASOS Display]_________FAA Disclaimer: "Not for use in aviation at this time______________" Untitled Document
Newton/City/County Airport
350
06:14
16/04/20
10
N/A
N/A
30.01
N/A
1533
52(F), 11(C)
46(F), 8(C)
49 F
82%
SCT004 BKN033 OVC040
5
N/A
N/A
N/A
06:14 zulu Wind 350 at 10 Knots, Altimeter 30.01
CURRENT KEWK 200614Z AUTO 35010KT 5SM SCT004 BKN033 OVC040 11/08 A3001 A02
METAR:
FAA Disclaimer--Advisory Use ONLY, not for flight info-- 6/29/2009: Best full service fuel prices in the area. Call 800-899-2485 or service@newtonairport.com . Catering, hangars, Hertz cars also available. Pilots with cellphones (smartphones) can now view awos at http://www.saiawos3.com/EWK
INFO:
Wind Direction:
Wind Speed:
Wind Gust:
Wind Variable:
Altimeter:
Dens Alt:
Elev:
Temp:
Dwpt:
Wind Chill
Rel Humidity:
Ceiling:
Visibility:
Prsnt Wea:
PCPN:
Remarks:
NOTICE--Current weather data is more than 15 minutes old. The SAI AWOS/ASOS Display is inoperative at this time.
How to read the WebPage